Time;durP1;ratioP1;P1;durP2;ratioP2;P2;SDS_P1;SDS_P2;PMS_P1;PMS_P2;Temp;Humidity;BMP_temperature;BMP_pressure;BME280_temperature;BME280_humidity;BME280_pressure;Samples;Min_cycle;Max_cycle;Signal;HPM_P1;HPM_P2
2023/08/10 00:01:53;;;;;;;;;12.00;12.00;;;;;21.39;68.56;101497.56;4978330;28;45310;-74
2023/08/10 00:04:19;;;;;;;;;14.00;11.00;;;;;21.26;68.70;101483.06;4978465;28;45266;-74
2023/08/10 00:06:45;;;;;;;;;10.75;10.00;;;;;21.36;68.57;101495.06;4977085;28;48192;-74
2023/08/10 00:09:11;;;;;;;;;13.25;10.75;;;;;21.51;68.85;101520.38;4978109;28;45317;-74
2023/08/10 00:11:37;;;;;;;;;10.50;10.50;;;;;21.28;69.11;101481.09;4978208;28;45340;-74
2023/08/10 00:14:03;;;;;;;;;10.50;9.50;;;;;21.28;68.88;101481.09;4978172;28;45477;-74
2023/08/10 00:16:29;;;;;;;;;14.75;13.50;;;;;21.29;69.22;101486.44;4976264;28;45633;-74
2023/08/10 00:18:54;;;;;;;;;11.00;9.25;;;;;21.29;68.93;101485.59;4977071;28;45420;-74
2023/08/10 00:21:20;;;;;;;;;11.25;8.50;;;;;21.22;69.19;101478.81;4978485;28;45376;-74
2023/08/10 00:23:45;;;;;;;;;10.50;10.50;;;;;21.41;68.76;101511.06;4957658;28;45374;-74
2023/08/10 00:26:11;;;;;;;;;8.25;8.25;;;;;21.25;69.13;101492.16;4966031;28;46371;-74
2023/08/10 00:28:36;;;;;;;;;11.75;11.75;;;;;21.33;68.89;101506.13;4958584;28;45451;-74
2023/08/10 00:31:03;;;;;;;;;12.75;12.75;;;;;21.41;69.43;101517.34;4969063;28;45374;-74
2023/08/10 00:33:28;;;;;;;;;10.25;10.25;;;;;21.39;69.25;101510.28;4972118;28;45264;-74
2023/08/10 00:35:53;;;;;;;;;10.00;10.00;;;;;21.22;68.91;101485.13;5008050;27;46226;-74
2023/08/10 00:38:19;;;;;;;;;7.50;7.50;;;;;21.20;69.45;101476.22;4958266;28;45319;-74
2023/08/10 00:40:44;;;;;;;;;11.00;10.50;;;;;21.23;69.33;101481.44;4958777;28;45337;-74
2023/08/10 00:43:10;;;;;;;;;12.00;9.25;;;;;21.34;69.26;101505.16;4958430;28;45462;-74
2023/08/10 00:45:37;;;;;;;;;12.00;9.25;;;;;21.26;69.38;101502.94;4968496;28;47485;-74
2023/08/10 00:48:03;;;;;;;;;4.00;4.00;;;;;21.13;69.22;101480.28;4959616;28;45434;-74
2023/08/10 00:50:29;;;;;;;;;7.75;5.25;;;;;21.26;69.12;101502.06;4958666;28;45318;-74
2023/08/10 00:52:55;;;;;;;;;7.00;6.50;;;;;21.23;68.69;101505.88;4958365;28;45536;-74
2023/08/10 00:55:20;;;;;;;;;7.00;7.00;;;;;21.24;68.75;101498.59;4968439;28;47076;-74
2023/08/10 00:57:46;;;;;;;;;6.25;5.50;;;;;21.12;68.27;101478.53;4976503;28;45455;-74
2023/08/10 01:00:12;;;;;;;;;4.00;2.00;;;;;21.33;69.07;101510.69;4966162;28;45366;-74
2023/08/10 01:02:41;;;;;;;;;6.00;5.50;;;;;21.32;68.58;101509.81;4975290;28;45735;-74
2023/08/10 01:05:11;;;;;;;;;6.75;6.00;;;;;21.27;68.89;101506.53;4973149;28;48359;-74
2023/08/10 01:07:54;;;;;;;;;7.00;7.00;;;;;21.32;68.98;101514.38;4958097;28;45539;-74
2023/08/10 01:10:38;;;;;;;;;8.50;8.50;;;;;21.29;68.83;101521.75;4958017;28;45310;-74
2023/08/10 01:13:17;;;;;;;;;9.50;8.25;;;;;20.95;69.25;101465.19;4957978;28;45766;-74
2023/08/10 01:15:51;;;;;;;;;12.00;8.00;;;;;21.26;69.51;101529.22;4975638;28;47147;-74
2023/08/10 01:18:25;;;;;;;;;10.25;8.75;;;;;21.20;69.70;101519.66;4973866;28;45692;-75
2023/08/10 01:20:53;;;;;;;;;15.50;9.50;;;;;21.08;69.67;101505.03;4969629;28;45381;-74
2023/08/10 01:23:38;;;;;;;;;11.25;11.25;;;;;21.23;69.75;101529.41;4969477;28;46167;-74
2023/08/10 01:26:05;;;;;;;;;12.25;10.75;;;;;21.17;69.70;101525.28;4967678;28;47210;-74
2023/08/10 01:28:33;;;;;;;;;9.00;8.25;;;;;21.04;69.61;101498.03;4972904;28;45481;-74
2023/08/10 01:30:59;;;;;;;;;11.25;10.75;;;;;21.16;70.25;101526.22;4956706;28;45415;-74
2023/08/10 01:33:26;;;;;;;;;13.00;12.25;;;;;21.07;70.50;101507.84;4982465;28;45505;-74
2023/08/10 01:35:52;;;;;;;;;10.75;9.25;;;;;21.08;70.05;101520.41;5007107;27;45549;-74
2023/08/10 01:38:17;;;;;;;;;10.75;10.00;;;;;21.00;69.95;101514.59;4958272;28;45637;-74
2023/08/10 01:40:43;;;;;;;;;9.25;9.25;;;;;21.02;70.12;101518.97;4968174;28;45377;-74
2023/08/10 01:43:08;;;;;;;;;11.75;9.50;;;;;20.94;70.42;101515.03;4959503;28;45336;-74
2023/08/10 01:45:33;;;;;;;;;5.00;5.00;;;;;;;;4967565;28;47036;-74
2023/08/10 01:48:27;;;;;;;;;8.67;7.33;;;;;20.94;69.76;101512.31;4959759;28;45395;-74
2023/08/10 01:50:54;;;;;;;;;9.50;8.25;;;;;21.08;69.85;101540.31;4956743;28;45502;-74
2023/08/10 01:53:32;;;;;;;;;9.50;7.50;;;;;20.91;70.13;101514.25;4957556;28;45461;-74
2023/08/10 01:55:59;;;;;;;;;7.75;7.25;;;;;21.01;69.84;101538.06;4957418;28;45804;-74
2023/08/10 01:58:25;;;;;;;;;8.00;8.00;;;;;20.99;70.17;101534.59;4957702;28;45625;-74
2023/08/10 02:00:51;;;;;;;;;9.00;8.00;;;;;20.82;70.00;101511.25;4957622;28;45393;-74
2023/08/10 02:03:17;;;;;;;;;7.50;6.50;;;;;20.81;70.23;101509.50;4957421;28;45442;-74
2023/08/10 02:05:42;;;;;;;;;6.00;6.00;;;;;20.82;70.30;101516.69;4957370;28;46078;-74
2023/08/10 02:08:08;;;;;;;;;6.00;5.50;;;;;20.95;69.70;101539.34;4957432;28;45605;-74
2023/08/10 02:10:33;;;;;;;;;6.50;6.50;;;;;20.98;69.58;101540.97;4957385;28;45360;-74
2023/08/10 02:12:59;;;;;;;;;6.00;6.00;;;;;20.97;70.11;101541.97;4957409;28;45295;-74
2023/08/10 02:15:25;;;;;;;;;6.25;6.25;;;;;20.81;69.33;101513.06;4972667;28;47161;-74
2023/08/10 02:17:50;;;;;;;;;7.00;6.75;;;;;20.86;69.72;101531.78;4972383;28;45425;-74
2023/08/10 02:20:15;;;;;;;;;5.50;5.50;;;;;20.77;69.73;101516.09;4957509;28;45297;-74
2023/08/10 02:22:47;;;;;;;;;6.50;5.50;;;;;20.74;70.09;101500.88;4957246;28;45308;-74
2023/08/10 02:25:13;;;;;;;;;6.00;6.00;;;;;20.91;69.41;101538.69;4957001;28;46650;-74
2023/08/10 02:27:40;;;;;;;;;4.00;4.00;;;;;20.75;69.23;101524.34;4957251;28;45358;-74
2023/08/10 02:30:06;;;;;;;;;5.75;5.75;;;;;20.70;69.88;101510.19;4957376;28;45327;-74
2023/08/10 02:32:32;;;;;;;;;5.75;5.75;;;;;20.70;69.80;101505.63;4967154;28;45670;-74
2023/08/10 02:34:57;;;;;;;;;7.25;5.25;;;;;20.90;69.56;101531.50;5015754;28;45362;-74
2023/08/10 02:37:23;;;;;;;;;7.75;6.75;;;;;20.85;69.84;101527.34;4967233;28;45516;-74
2023/08/10 02:39:48;;;;;;;;;8.00;7.00;;;;;20.89;69.39;101531.59;4971867;28;45399;-74
2023/08/10 02:42:14;;;;;;;;;6.25;5.50;;;;;20.70;69.16;101499.34;4958711;28;45648;-74
2023/08/10 02:44:39;;;;;;;;;8.00;6.00;;;;;20.80;69.71;101516.78;4959819;28;45438;-74
2023/08/10 02:47:05;;;;;;;;;6.75;5.50;;;;;20.78;69.48;101510.56;4969756;28;45422;-74
2023/08/10 02:49:30;;;;;;;;;7.00;5.25;;;;;20.68;69.32;101506.69;4974878;28;45421;-74
2023/08/10 02:51:55;;;;;;;;;7.00;7.00;;;;;20.69;69.75;101506.59;4969523;28;49453;-74
2023/08/10 02:54:21;;;;;;;;;5.50;5.00;;;;;20.89;69.03;101537.03;4977671;28;46002;-74
2023/08/10 02:56:46;;;;;;;;;6.75;6.00;;;;;20.87;69.30;101549.81;4968433;28;45452;-74
2023/08/10 02:59:12;;;;;;;;;7.00;6.25;;;;;20.84;68.97;101541.88;4959897;28;45363;-75
2023/08/10 03:01:37;;;;;;;;;5.75;5.75;;;;;20.84;68.70;101550.00;4959730;28;45445;-74
2023/08/10 03:04:03;;;;;;;;;7.00;6.25;;;;;20.83;68.73;101548.25;4975607;28;47126;-74
2023/08/10 03:06:28;;;;;;;;;6.50;6.25;;;;;20.83;68.76;101548.25;4968266;28;45448;-75
2023/08/10 03:08:54;;;;;;;;;5.50;5.50;;;;;20.72;68.81;101525.38;4975625;28;45365;-74
2023/08/10 03:11:19;;;;;;;;;8.00;7.00;;;;;20.76;68.74;101520.63;4968180;28;45279;-74
2023/08/10 03:13:44;;;;;;;;;5.25;5.25;;;;;20.53;68.48;101489.47;4959489;28;45607;-74
2023/08/10 03:16:10;;;;;;;;;7.75;6.50;;;;;20.78;68.85;101523.25;4959426;28;45299;-74
2023/08/10 03:18:35;;;;;;;;;4.00;4.00;;;;;20.58;68.88;101497.34;4975935;28;45494;-74
2023/08/10 03:21:01;;;;;;;;;7.00;5.75;;;;;20.56;68.53;101494.72;4977852;28;45363;-74
2023/08/10 03:23:27;;;;;;;;;6.00;6.00;;;;;20.59;68.13;101507.22;4960679;28;46471;-74
2023/08/10 03:25:52;;;;;;;;;6.25;5.50;;;;;20.48;69.02;101497.94;4969549;28;45445;-74
2023/08/10 03:28:17;;;;;;;;;7.25;6.00;;;;;20.69;68.58;101524.72;4979004;28;45343;-74
2023/08/10 03:30:43;;;;;;;;;7.75;7.00;;;;;20.60;68.33;101508.97;4979022;28;45463;-74
2023/08/10 03:33:08;;;;;;;;;8.00;7.00;;;;;20.57;68.26;101501.03;4978764;28;45492;-74
2023/08/10 03:35:34;;;;;;;;;6.00;6.00;;;;;20.70;68.23;101526.47;5024361;28;45513;-74
2023/08/10 03:37:59;;;;;;;;;5.00;5.00;;;;;20.55;68.65;101503.84;4978717;28;45761;-74
2023/08/10 03:40:25;;;;;;;;;8.25;7.00;;;;;20.58;68.55;101513.63;4978792;28;45385;-74
2023/08/10 03:42:50;;;;;;;;;8.00;6.00;;;;;20.49;68.62;101505.09;4978647;28;46160;-74
2023/08/10 03:45:16;;;;;;;;;9.25;7.75;;;;;20.67;68.41;101535.66;4978938;28;45533;-74
2023/08/10 03:47:42;;;;;;;;;5.75;5.25;;;;;20.48;68.56;101505.19;4978546;28;45390;-74
2023/08/10 03:50:08;;;;;;;;;6.25;6.25;;;;;20.48;68.19;101502.47;4978885;28;45422;-74
2023/08/10 03:52:33;;;;;;;;;6.00;6.00;;;;;20.45;68.26;101500.81;4978314;27;47070;-74
2023/08/10 03:54:59;;;;;;;;;6.00;5.75;;;;;20.61;68.94;101527.00;4976630;28;45332;-74
2023/08/10 03:57:25;;;;;;;;;5.50;4.75;;;;;20.52;68.84;101523.88;4978601;28;45423;-74
2023/08/10 03:59:50;;;;;;;;;5.00;5.00;;;;;20.56;68.15;101529.97;4978711;28;45322;-74
2023/08/10 04:02:15;;;;;;;;;4.50;4.00;;;;;20.47;68.65;101511.59;4978404;28;45302;-74
2023/08/10 04:04:41;;;;;;;;;6.00;6.00;;;;;20.42;69.09;101519.13;4978460;28;45365;-74
2023/08/10 04:07:07;;;;;;;;;5.00;5.00;;;;;20.64;69.03;101560.25;4978468;28;45532;-74
2023/08/10 04:09:33;;;;;;;;;6.00;6.00;;;;;20.47;68.97;101536.00;4977015;28;45348;-74
2023/08/10 04:11:59;;;;;;;;;6.00;6.00;;;;;20.42;69.33;101532.69;4977996;28;45530;-74
2023/08/10 04:14:24;;;;;;;;;6.00;6.00;;;;;20.54;69.50;101546.34;4978383;28;45379;-74
2023/08/10 04:16:50;;;;;;;;;6.75;5.00;;;;;20.38;68.64;101518.44;4975976;28;45472;-74
2023/08/10 04:19:15;;;;;;;;;4.75;4.75;;;;;20.34;68.83;101517.75;4978456;28;45566;-74
2023/08/10 04:21:40;;;;;;;;;5.25;5.25;;;;;20.48;68.79;101556.69;4978059;28;45596;-74
2023/08/10 04:24:06;;;;;;;;;5.25;5.25;;;;;20.38;68.51;101550.09;4976750;28;46040;-75
2023/08/10 04:26:31;;;;;;;;;5.00;5.00;;;;;20.44;68.63;101555.16;4978374;28;45459;-74
2023/08/10 04:28:57;;;;;;;;;4.75;4.75;;;;;20.39;69.00;101560.84;4976969;28;45386;-74
2023/08/10 04:31:23;;;;;;;;;5.50;5.00;;;;;20.34;68.87;101553.00;4978038;28;45659;-74
2023/08/10 04:33:48;;;;;;;;;5.50;5.50;;;;;20.29;68.95;101541.56;5002878;28;45529;-74
2023/08/10 04:36:14;;;;;;;;;6.25;5.25;;;;;20.40;69.07;101561.72;4998352;28;45495;-74
2023/08/10 04:38:39;;;;;;;;;5.25;5.25;;;;;20.25;68.97;101536.44;4965386;28;45277;-74
2023/08/10 04:41:04;;;;;;;;;6.00;5.50;;;;;20.24;69.23;101532.84;4963423;28;46009;-74
2023/08/10 04:43:30;;;;;;;;;4.75;4.75;;;;;20.36;69.71;101553.78;4964969;28;45347;-74
2023/08/10 04:45:55;;;;;;;;;5.50;5.00;;;;;20.39;69.60;101565.41;4963809;28;45362;-74
2023/08/10 04:48:20;;;;;;;;;4.75;4.00;;;;;20.30;69.90;101537.88;4958501;28;45549;-74
2023/08/10 04:50:46;;;;;;;;;6.00;5.00;;;;;20.23;69.52;101532.91;4958341;28;45769;-74
2023/08/10 04:53:11;;;;;;;;;5.25;5.25;;;;;20.06;69.72;101510.41;4958278;28;45332;-74
2023/08/10 04:55:36;;;;;;;;;6.00;6.00;;;;;20.21;69.72;101545.69;4958378;28;45479;-74
2023/08/10 04:58:02;;;;;;;;;4.75;4.75;;;;;20.28;69.62;101553.38;4964907;28;45896;-74
2023/08/10 05:00:28;;;;;;;;;6.00;6.00;;;;;20.22;69.76;101539.31;4963538;28;46397;-74
2023/08/10 05:02:53;;;;;;;;;7.50;5.75;;;;;20.20;70.16;101543.94;4958341;28;45878;-74
2023/08/10 05:05:19;;;;;;;;;6.75;6.75;;;;;20.14;70.18;101524.38;4958116;28;45382;-74
2023/08/10 05:07:44;;;;;;;;;5.25;5.25;;;;;20.19;70.03;101537.66;4958344;28;45472;-74
2023/08/10 05:10:10;;;;;;;;;5.00;5.00;;;;;20.31;70.23;101561.34;4969523;28;47901;-74
2023/08/10 05:12:38;;;;;;;;;5.75;5.75;;;;;20.33;69.97;101563.94;4958034;28;45424;-74
2023/08/10 05:15:04;;;;;;;;;6.25;6.25;;;;;20.16;70.38;101549.56;4958247;28;45394;-74
2023/08/10 05:17:30;;;;;;;;;7.25;7.00;;;;;20.35;70.10;101581.88;4965710;28;45555;-74
2023/08/10 05:19:56;;;;;;;;;8.50;5.75;;;;;20.17;70.59;101550.44;4974005;28;47149;-74
2023/08/10 05:22:21;;;;;;;;;6.75;6.50;;;;;20.18;70.49;101557.63;4976192;28;45352;-74
2023/08/10 05:24:46;;;;;;;;;7.00;5.75;;;;;20.09;70.04;101541.91;4977381;28;45494;-74
2023/08/10 05:27:12;;;;;;;;;6.25;6.00;;;;;20.14;70.59;101546.06;4977655;28;45272;-74
2023/08/10 05:29:37;;;;;;;;;7.25;6.25;;;;;20.33;69.97;101567.53;4977317;28;45509;-74
2023/08/10 05:32:03;;;;;;;;;7.00;6.00;;;;;20.18;70.35;101541.34;4977482;28;45325;-74
2023/08/10 05:34:28;;;;;;;;;7.50;7.50;;;;;20.18;70.02;101533.22;5025301;28;45485;-74
2023/08/10 05:36:54;;;;;;;;;5.75;4.50;;;;;20.32;70.10;101560.34;4963997;28;45595;-74
2023/08/10 05:39:19;;;;;;;;;7.00;4.75;;;;;20.32;69.62;101563.06;4963322;28;46261;-74
2023/08/10 05:41:44;;;;;;;;;6.50;6.00;;;;;20.13;69.99;101529.88;4963589;28;45467;-74
2023/08/10 05:44:12;;;;;;;;;5.50;5.50;;;;;20.32;70.51;101563.06;4963906;28;45508;-74
2023/08/10 05:46:46;;;;;;;;;6.00;5.50;;;;;20.21;70.17;101545.69;4958060;28;45441;-74
2023/08/10 05:49:12;;;;;;;;;4.75;4.75;;;;;20.09;70.63;101526.50;4957576;28;45405;-74
2023/08/10 05:51:37;;;;;;;;;6.50;4.50;;;;;20.10;70.98;101522.84;4957420;28;55763;-74
2023/08/10 05:54:02;;;;;;;;;5.75;5.00;;;;;20.15;70.72;101519.84;4957610;28;45557;-74
2023/08/10 05:56:28;;;;;;;;;5.00;4.50;;;;;20.34;70.29;101552.13;4964165;28;45536;-74
2023/08/10 05:58:53;;;;;;;;;5.25;5.25;;;;;20.20;70.83;101530.38;4962878;28;46484;-74
2023/08/10 06:01:18;;;;;;;;;8.00;7.00;;;;;20.25;70.87;101531.88;4963725;28;45423;-74
2023/08/10 06:03:44;;;;;;;;;8.50;6.00;;;;;20.29;70.84;101528.00;4963232;28;45392;-74
2023/08/10 06:06:09;;;;;;;;;5.00;5.00;;;;;20.24;70.98;101515.69;4963382;28;45856;-74
2023/08/10 06:08:35;;;;;;;;;4.25;4.25;;;;;20.36;70.19;101539.34;4972191;28;46068;-74
2023/08/10 06:11:01;;;;;;;;;6.00;5.50;;;;;20.13;70.23;101502.78;4963458;28;45540;-74
2023/08/10 06:13:27;;;;;;;;;7.00;7.00;;;;;20.34;69.23;101531.31;4972313;28;45369;-74
2023/08/10 06:15:52;;;;;;;;;5.75;5.00;;;;;20.30;69.68;101510.78;4956622;28;45483;-74
2023/08/10 06:18:17;;;;;;;;;5.00;5.00;;;;;20.38;70.34;101536.53;4971100;28;45601;-74
2023/08/10 06:20:44;;;;;;;;;5.00;5.00;;;;;20.42;69.75;101548.97;4976942;28;45252;-74
2023/08/10 06:23:11;;;;;;;;;6.00;5.00;;;;;20.44;69.42;101544.31;4976662;28;45414;-74
2023/08/10 06:25:37;;;;;;;;;6.50;4.75;;;;;20.35;69.77;101526.78;4976825;28;45474;-74
2023/08/10 06:28:02;;;;;;;;;7.75;5.25;;;;;20.15;70.04;101488.19;4976651;28;45433;-74
2023/08/10 06:30:28;;;;;;;;;7.50;5.25;;;;;20.21;69.91;101503.19;4976674;28;45564;-74
2023/08/10 06:32:53;;;;;;;;;5.75;5.75;;;;;20.40;70.26;101523.75;4976716;28;45346;-74
2023/08/10 06:35:19;;;;;;;;;7.00;7.00;;;;;20.48;70.09;101533.19;5018314;28;45298;-74
2023/08/10 06:37:45;;;;;;;;;6.25;5.25;;;;;20.43;70.15;101518.16;4957034;28;45331;-74
2023/08/10 06:40:15;;;;;;;;;7.25;7.25;;;;;20.45;69.06;101519.81;4957003;28;45307;-74
2023/08/10 06:42:41;;;;;;;;;9.00;9.00;;;;;20.32;68.87;101506.13;4957119;28;45489;-74
2023/08/10 06:45:08;;;;;;;;;8.00;8.00;;;;;20.39;69.18;101522.03;4966038;28;45608;-74
2023/08/10 06:47:33;;;;;;;;;7.50;7.50;;;;;20.27;68.85;101497.41;4961562;28;45417;-74
2023/08/10 06:49:59;;;;;;;;;10.00;9.75;;;;;20.44;68.93;101528.03;4956991;28;45232;-74
2023/08/10 06:52:24;;;;;;;;;5.25;5.00;;;;;20.32;69.25;101500.69;4957006;28;45299;-74
2023/08/10 06:54:52;;;;;;;;;7.75;6.25;;;;;20.34;69.30;101487.06;4956630;28;45474;-74
2023/08/10 06:57:19;;;;;;;;;10.75;8.25;;;;;20.20;69.17;101444.53;4956782;28;45423;-74
2023/08/10 06:59:44;;;;;;;;;5.00;5.00;;;;;20.48;68.96;101492.50;4956755;28;45486;-74
2023/08/10 07:02:09;;;;;;;;;8.25;6.25;;;;;20.47;68.32;101498.03;4957514;28;45414;-74
2023/08/10 07:04:34;;;;;;;;;5.00;5.00;;;;;20.60;68.10;101508.97;4973420;28;45443;-74
2023/08/10 07:07:01;;;;;;;;;5.50;4.50;;;;;20.51;68.11;101486.00;4961015;28;46102;-74
2023/08/10 07:09:26;;;;;;;;;4.25;4.00;;;;;20.46;68.12;101470.00;4956801;28;45525;-74
2023/08/10 07:11:52;;;;;;;;;10.00;7.50;;;;;20.52;68.60;101485.06;4956496;28;45351;-74
2023/08/10 07:14:17;;;;;;;;;6.25;6.25;;;;;20.48;68.11;101461.78;4956653;28;45494;-74
2023/08/10 07:16:42;;;;;;;;;6.50;5.25;;;;;20.66;68.42;101487.78;4966992;28;46884;-74
2023/08/10 07:19:08;;;;;;;;;8.75;8.50;;;;;20.54;68.10;101456.84;4968335;28;55023;-74
2023/08/10 07:21:33;;;;;;;;;8.50;7.00;;;;;20.55;68.07;101465.88;4961177;28;45427;-74
2023/08/10 07:23:58;;;;;;;;;7.25;7.25;;;;;20.75;68.06;101502.63;4956070;28;45553;-74
2023/08/10 07:26:24;;;;;;;;;6.25;6.25;;;;;20.65;68.61;101485.19;4956249;28;45984;-74
2023/08/10 07:28:50;;;;;;;;;5.50;5.50;;;;;20.72;68.74;101502.81;4958919;28;45304;-74
2023/08/10 07:31:15;;;;;;;;;6.50;5.25;;;;;20.73;68.24;101504.53;4971229;28;45307;-74
2023/08/10 07:33:42;;;;;;;;;7.75;7.50;;;;;20.83;68.62;101524.72;4984744;28;45667;-74
2023/08/10 07:36:08;;;;;;;;;7.50;7.00;;;;;20.81;68.62;101523.91;4990979;27;46174;-74
2023/08/10 07:38:33;;;;;;;;;6.00;6.00;;;;;21.01;68.54;101560.66;4959285;28;45565;-75
2023/08/10 07:40:58;;;;;;;;;7.00;5.75;;;;;20.90;68.45;101549.63;4959521;28;45600;-74
2023/08/10 07:43:24;;;;;;;;;5.00;5.00;;;;;20.97;68.29;101548.25;4959283;28;45332;-74
2023/08/10 07:45:50;;;;;;;;;5.75;5.00;;;;;20.92;68.26;101529.56;4974229;28;45940;-74
2023/08/10 07:48:15;;;;;;;;;5.75;5.75;;;;;21.18;68.68;101569.56;4977343;28;45441;-74
2023/08/10 07:50:40;;;;;;;;;7.00;5.25;;;;;21.07;68.61;101541.28;4968303;28;45698;-74
2023/08/10 07:53:05;;;;;;;;;5.00;5.00;;;;;21.10;69.08;101543.78;4959101;28;45608;-74
2023/08/10 07:55:31;;;;;;;;;4.00;4.00;;;;;21.30;68.68;101563.38;4990020;28;46005;-75
2023/08/10 07:57:56;;;;;;;;;7.50;6.25;;;;;21.39;67.86;101559.19;5020082;28;45530;-74
2023/08/10 08:00:22;;;;;;;;;6.00;5.50;;;;;21.46;67.95;101561.38;4979232;28;45518;-74
2023/08/10 08:02:49;;;;;;;;;5.50;5.25;;;;;21.21;67.72;101509.66;4960571;28;45367;-74
2023/08/10 08:05:16;;;;;;;;;7.50;6.00;;;;;21.56;67.79;101563.53;4958785;28;45433;-74
2023/08/10 08:07:42;;;;;;;;;4.00;4.00;;;;;21.54;67.67;101552.75;4960335;28;45323;-74
2023/08/10 08:10:08;;;;;;;;;4.00;4.00;;;;;21.49;67.42;101533.19;4958674;28;45311;-74
2023/08/10 08:12:33;;;;;;;;;4.50;4.25;;;;;21.67;67.27;101557.38;4964245;28;45743;-74
2023/08/10 08:14:59;;;;;;;;;5.00;5.00;;;;;21.69;66.81;101559.03;4974381;28;45504;-74
2023/08/10 08:17:24;;;;;;;;;4.25;4.25;;;;;21.87;66.98;101575.06;4964711;28;45509;-74
2023/08/10 08:19:55;;;;;;;;;5.00;5.00;;;;;22.05;66.85;101594.72;4967617;28;45371;-74
2023/08/10 08:22:21;;;;;;;;;5.50;3.25;;;;;21.91;66.71;101568.47;4974166;28;46259;-74
2023/08/10 08:24:50;;;;;;;;;6.00;4.50;;;;;21.86;66.24;101544.31;4958100;28;45439;-74
2023/08/10 08:27:15;;;;;;;;;5.50;5.50;;;;;22.22;66.52;101594.47;4958070;28;45480;-74
2023/08/10 08:29:41;;;;;;;;;4.75;4.75;;;;;22.24;65.61;101594.34;4957455;28;45443;-74
2023/08/10 08:32:06;;;;;;;;;5.00;5.00;;;;;22.27;66.08;101597.72;4958068;28;45446;-74
2023/08/10 08:34:35;;;;;;;;;4.75;4.75;;;;;22.21;65.97;101571.81;5020080;28;48168;-74
2023/08/10 08:37:00;;;;;;;;;5.25;5.25;;;;;22.29;65.66;101575.91;4964983;28;45849;-74
2023/08/10 08:39:26;;;;;;;;;4.75;4.75;;;;;22.39;65.33;101585.16;4963263;28;45533;-74
2023/08/10 08:41:54;;;;;;;;;4.00;4.00;;;;;22.21;66.23;101546.47;4958699;28;45474;-74
2023/08/10 08:44:20;;;;;;;;;4.50;4.50;;;;;22.49;65.88;101580.84;4958377;28;46343;-74
2023/08/10 08:46:48;;;;;;;;;6.25;6.25;;;;;22.53;65.52;101571.47;4965037;28;45427;-74
2023/08/10 08:49:14;;;;;;;;;5.00;5.00;;;;;22.45;65.59;101552.09;4963498;28;45509;-74
2023/08/10 08:51:41;;;;;;;;;4.50;3.25;;;;;22.44;65.53;101544.91;4958529;28;45319;-74
2023/08/10 08:54:07;;;;;;;;;3.00;3.00;;;;;22.55;65.78;101545.03;4969821;28;47976;-74
2023/08/10 08:56:32;;;;;;;;;5.00;5.00;;;;;22.55;65.72;101530.56;4958433;28;45330;-76
2023/08/10 08:58:57;;;;;;;;;5.00;4.50;;;;;22.63;65.51;101524.56;4958480;28;45273;-74
2023/08/10 09:01:24;;;;;;;;;5.00;5.00;;;;;22.72;65.34;101523.91;4958445;28;45407;-75
2023/08/10 09:03:50;;;;;;;;;4.00;3.75;;;;;22.75;65.40;101516.41;4969875;28;47339;-75
2023/08/10 09:06:15;;;;;;;;;5.00;5.00;;;;;22.74;65.75;101494.75;4958306;28;45449;-75
2023/08/10 09:08:41;;;;;;;;;4.25;4.25;;;;;22.97;65.86;101527.59;4958071;28;45595;-72
2023/08/10 09:11:07;;;;;;;;;4.00;4.00;;;;;22.98;65.76;101527.47;4964284;28;45340;-71
2023/08/10 09:13:33;;;;;;;;;5.75;5.00;;;;;22.91;65.28;101494.38;4963180;28;45588;-72
2023/08/10 09:16:13;;;;;;;;;6.00;6.00;;;;;22.86;65.30;101468.50;4958180;28;45440;-72
2023/08/10 09:18:41;;;;;;;;;5.00;4.00;;;;;23.00;65.88;101471.06;4974898;28;45365;-72
2023/08/10 09:21:12;;;;;;;;;5.00;5.00;;;;;23.11;65.04;101478.50;4977681;28;45324;-72
2023/08/10 09:23:37;;;;;;;;;6.00;5.00;;;;;23.21;64.87;101493.16;4977035;28;45424;-73
2023/08/10 09:26:08;;;;;;;;;5.75;4.50;;;;;23.24;64.50;101484.75;4977745;28;45334;-72
2023/08/10 09:28:38;;;;;;;;;4.75;4.75;;;;;23.28;64.71;101480.81;4977578;28;45452;-72
2023/08/10 09:31:10;;;;;;;;;6.00;5.75;;;;;23.35;64.91;101488.53;4977571;28;45561;-72
2023/08/10 09:33:37;;;;;;;;;6.25;5.00;;;;;23.51;64.12;101512.78;4991609;28;45396;-72
2023/08/10 09:36:04;;;;;;;;;5.50;4.25;;;;;23.34;64.27;101475.88;4994202;27;45333;-72
2023/08/10 09:38:29;;;;;;;;;6.50;4.00;;;;;23.60;63.72;101512.09;4958064;28;45446;-72
2023/08/10 09:41:12;;;;;;;;;4.75;4.75;;;;;23.62;64.22;101505.56;4957862;28;45476;-72
2023/08/10 09:43:44;;;;;;;;;2.75;2.75;;;;;23.52;63.79;101488.13;4957875;28;46047;-72
2023/08/10 09:46:12;;;;;;;;;4.00;4.00;;;;;23.56;63.04;101492.38;4957786;28;45346;-72
2023/08/10 09:48:39;;;;;;;;;5.50;5.00;;;;;23.53;63.63;101484.44;4958091;28;45469;-72
2023/08/10 09:51:06;;;;;;;;;2.50;2.50;;;;;23.70;63.00;101513.13;4956371;28;45523;-72
2023/08/10 09:53:33;;;;;;;;;4.00;4.00;;;;;23.67;63.02;101489.72;4957616;28;46279;-72
2023/08/10 09:55:59;;;;;;;;;1.75;1.75;;;;;23.85;63.14;101511.97;4973877;28;45854;-72
2023/08/10 09:58:25;;;;;;;;;5.00;3.75;;;;;23.96;63.56;101505.72;4966040;28;45324;-72
2023/08/10 10:00:51;;;;;;;;;5.00;4.25;;;;;24.03;63.42;101498.78;4957530;28;45533;-72
2023/08/10 10:03:21;;;;;;;;;2.00;1.75;;;;;23.90;62.93;101470.75;4957467;28;46301;-72
2023/08/10 10:05:48;;;;;;;;;4.25;4.25;;;;;23.98;62.61;101472.88;4957321;28;45458;-72
2023/08/10 10:08:16;;;;;;;;;4.00;4.00;;;;;23.98;62.65;101461.97;4957607;28;45334;-72
2023/08/10 10:10:42;;;;;;;;;2.75;2.00;;;;;24.17;62.95;101483.22;4957407;28;45606;-72
2023/08/10 10:13:14;;;;;;;;;4.00;4.00;;;;;24.19;62.54;101475.78;4957025;28;46439;-72
2023/08/10 10:15:41;;;;;;;;;4.75;4.75;;;;;24.08;62.76;101454.81;4964252;28;45554;-72
2023/08/10 10:18:08;;;;;;;;;4.25;3.75;;;;;24.19;62.31;101464.88;4974634;28;45380;-72
2023/08/10 10:20:37;;;;;;;;;4.75;4.75;;;;;24.00;62.74;101441.75;4976997;28;45595;-72
2023/08/10 10:23:02;;;;;;;;;4.00;4.00;;;;;23.97;63.27;101427.50;4976675;28;45458;-72
2023/08/10 10:25:28;;;;;;;;;4.75;4.00;;;;;24.23;63.04;101472.69;4976730;28;45364;-72
2023/08/10 10:27:53;;;;;;;;;3.00;3.00;;;;;24.28;63.05;101474.22;4977068;28;45395;-72
2023/08/10 10:30:23;;;;;;;;;5.00;4.00;;;;;24.30;63.38;101470.34;4975497;28;45314;-72
2023/08/10 10:32:50;;;;;;;;;6.00;3.00;;;;;24.21;62.96;101443.81;4976916;27;47097;-72
2023/08/10 10:35:31;;;;;;;;;4.25;4.25;;;;;24.20;62.64;101433.88;5021117;28;45464;-72
2023/08/10 10:37:58;;;;;;;;;2.25;2.25;;;;;24.11;62.56;101419.13;4957225;28;45332;-72
2023/08/10 10:40:25;;;;;;;;;3.00;3.00;;;;;24.30;62.50;101440.34;4957255;28;45767;-72
2023/08/10 10:43:15;;;;;;;;;3.00;3.00;;;;;24.28;61.58;101428.69;4956882;28;45564;-72
2023/08/10 10:45:44;;;;;;;;;6.00;4.00;;;;;24.34;61.89;101424.59;4957155;28;45322;-73
2023/08/10 10:48:10;;;;;;;;;2.50;2.50;;;;;24.32;62.58;101419.25;4962230;28;45430;-72
2023/08/10 10:50:36;;;;;;;;;4.00;3.25;;;;;24.27;62.27;101393.34;4976392;28;45348;-72
2023/08/10 10:53:06;;;;;;;;;2.00;2.00;;;;;24.32;61.46;101400.16;4976180;28;45778;-72
2023/08/10 10:55:34;;;;;;;;;3.00;3.00;;;;;24.54;62.23;101428.44;4976323;28;45317;-72
2023/08/10 10:58:04;;;;;;;;;3.00;3.00;;;;;24.56;61.44;101423.78;4975153;28;45470;-72
2023/08/10 11:00:30;;;;;;;;;2.25;2.25;;;;;24.46;61.39;101407.25;4976244;28;45510;-72
2023/08/10 11:02:56;;;;;;;;;2.25;2.25;;;;;24.46;61.57;101403.63;4977345;28;45416;-72
2023/08/10 11:05:22;;;;;;;;;2.00;2.00;;;;;24.65;61.24;101428.47;4979109;28;45454;-72
2023/08/10 11:07:50;;;;;;;;;2.25;2.25;;;;;24.58;61.27;101410.88;4979313;28;45302;-72
2023/08/10 11:10:17;;;;;;;;;1.00;1.00;;;;;24.62;60.96;101416.94;4978936;28;45440;-72
2023/08/10 11:12:46;;;;;;;;;4.00;3.00;;;;;24.63;61.49;101414.09;4978926;28;46503;-72
2023/08/10 11:15:13;;;;;;;;;3.75;3.75;;;;;24.64;61.12;101406.78;4978947;28;45240;-72
2023/08/10 11:17:41;;;;;;;;;3.25;2.25;;;;;24.82;61.36;101435.28;4976890;28;45335;-72
2023/08/10 11:20:12;;;;;;;;;3.25;3.25;;;;;24.85;61.47;101434.19;4977628;28;45874;-72
2023/08/10 11:22:38;;;;;;;;;3.00;3.00;;;;;24.84;60.43;101432.44;4978868;28;45524;-72